Hauptseite
METAR-TAF:

METAR-TAF

Flughäfen :

Flughafen Sundsvall-Timrå

Sundsvall-Härnösand, Schweden

Breite: 62-32N, Länge: 017-27E, Höhe: 4 m

Beobachtung

Neuester Wetterbericht von vor 19 Minuten, um 15:50 UTC
Wind 6 kt aus Ost
Temperatur 0°C
Luftfeuchtigkeit 100%
Luftdruck 1019 hPa
Sichtweite: 0450 m
Nebel,

METAR: ESNN 021550Z AUTO 10006KT 0450 R16/1100N R34/1000N FG VV002 00/00 Q1019

Zeit: 17:09 (16:09 UTC)


TAF: fehlend

Wetterbeobachtungen und Prognosen von mehr als 4000 Flughäfen (METAR und TAF Bericht).

Die verfügbaren Stationen werden durch gelbe und rote Markierungen auf der Karte dargestellt.

Führen Sie die Maus auf sie, um den Namen der Station zu sehen.

Darauf klicken, um die Beobachtung von Wetterbeobachtungen und Prognosen zu sehen.

Um die Karte zu ändern : klicken Sie auf den grünen Tasten mit einem schwarzen Kreuz Zum Vergrößern, auf den grünen Button mit einem Gedankenstrich zu verkleinern, oder auf die grünen Pfeile für benachbarte Karten.


METAR-TAF: